Terminal Aerodrome Forecast
Issued by NWS Mt. Holly, NJ

Home | Current Version | Previous Version | Text Only | Print | Product List | Glossary On
Versions: 1 2 3 4 5 6 7 8 9 10 11 12 13 14 15 16 17 18 19 20 21
000
FTUS41 KPHI 052325
TAFACY
TAF
KACY 052325Z 0600/0624 19007KT P6SM BKN250
     FM060400 VRB03KT P6SM BKN150
     FM060800 13003KT P6SM SCT035 BKN080
     FM061300 13005KT P6SM BKN080
     FM061700 16009KT P6SM SCT050 BKN100=

USA.gov is the U.S. government's official web portal to all federal, state and local government web resources and services.